FIN350 EFHK-EHAM
Flight info
| Callsign | FIN350 |
|---|---|
| Flight time | N/A |
| Altitude | 40000 |
| Route | VALOX5C VALOX Y117 ROSAX DCT KESUR DCT BLUFA BLUFA1A |
| Aircraft | A359/H-SDE2E3GHIJ3J4J5LM1ORWXY/LB1D1 |
Departure
| Time | 2026-04-20 16:40 |
|---|---|
| Airport | Helsinki Vantaa Airport (EFHK) |
Arrival
| Time | N/A |
|---|---|
| Airport | Amsterdam Airport Schiphol (EHAM) |
| Time | Latitude | Longitude | Altitude | Speed | Heading |
|---|---|---|---|---|---|
| 2026-04-20 16:23 | 60.31909 | 24.97000 | 150 ft | 0 kts | 246° |
| 2026-04-20 16:31 | 60.31909 | 24.97001 | 169 ft | 1 kts | 246° |
| 2026-04-20 16:31 | 60.31915 | 24.97028 | 169 ft | 2 kts | 246° |
| 2026-04-20 16:31 | 60.31921 | 24.97059 | 169 ft | 3 kts | 259° |
| 2026-04-20 16:32 | 60.31921 | 24.97072 | 169 ft | 2 kts | 270° |
| 2026-04-20 16:32 | 60.31919 | 24.97106 | 169 ft | 3 kts | 290° |
| 2026-04-20 16:32 | 60.31917 | 24.97118 | 169 ft | 0 kts | 298° |
| 2026-04-20 16:32 | 60.31928 | 24.97095 | 169 ft | 1 kts | 318° |
| 2026-04-20 16:33 | 60.31943 | 24.97077 | 169 ft | 0 kts | 328° |
| 2026-04-20 16:33 | 60.31948 | 24.97070 | 169 ft | 0 kts | 329° |
| 2026-04-20 16:34 | 60.31949 | 24.97069 | 169 ft | 1 kts | 329° |
| 2026-04-20 16:34 | 60.31964 | 24.97053 | 169 ft | 5 kts | 331° |
| 2026-04-20 16:35 | 60.32007 | 24.97007 | 169 ft | 9 kts | 333° |
| 2026-04-20 16:35 | 60.32078 | 24.96928 | 169 ft | 14 kts | 329° |
| 2026-04-20 16:35 | 60.32173 | 24.96815 | 170 ft | 18 kts | 329° |
| 2026-04-20 16:35 | 60.32236 | 24.96675 | 170 ft | 5 kts | 265° |
| 2026-04-20 16:36 | 60.32209 | 24.96593 | 170 ft | 10 kts | 231° |
| 2026-04-20 16:36 | 60.32151 | 24.96459 | 170 ft | 15 kts | 228° |
| 2026-04-20 16:36 | 60.32067 | 24.96272 | 170 ft | 20 kts | 226° |
| 2026-04-20 16:36 | 60.31961 | 24.96038 | 170 ft | 25 kts | 228° |
| 2026-04-20 16:37 | 60.31832 | 24.95756 | 170 ft | 29 kts | 226° |
| 2026-04-20 16:37 | 60.31683 | 24.95436 | 170 ft | 33 kts | 227° |
| 2026-04-20 16:37 | 60.31521 | 24.95071 | 169 ft | 37 kts | 229° |
| 2026-04-20 16:37 | 60.31343 | 24.94672 | 169 ft | 40 kts | 227° |
| 2026-04-20 16:38 | 60.31165 | 24.94279 | 168 ft | 19 kts | 227° |
| 2026-04-20 16:38 | 60.31139 | 24.94223 | 168 ft | 6 kts | 227° |
| 2026-04-20 16:38 | 60.31096 | 24.94129 | 168 ft | 12 kts | 227° |
| 2026-04-20 16:38 | 60.31043 | 24.93955 | 168 ft | 16 kts | 253° |
| 2026-04-20 16:39 | 60.31087 | 24.93742 | 167 ft | 17 kts | 323° |
| 2026-04-20 16:39 | 60.31190 | 24.93763 | 167 ft | 17 kts | 42° |
| 2026-04-20 16:39 | 60.31274 | 24.93960 | 168 ft | 20 kts | 48° |
| 2026-04-20 16:39 | 60.31492 | 24.94428 | 167 ft | 88 kts | 47° |
| 2026-04-20 16:40 | 60.32119 | 24.95775 | 280 ft | 169 kts | 47° |
| 2026-04-20 16:40 | 60.33024 | 24.98007 | 329 ft | 243 kts | 49° |
| 2026-04-20 16:40 | 60.34074 | 25.00578 | 2015 ft | 237 kts | 48° |
| 2026-04-20 16:40 | 60.35146 | 25.03135 | 3423 ft | 241 kts | 47° |
| 2026-04-20 16:41 | 60.36279 | 25.05644 | 4352 ft | 243 kts | 45° |
| 2026-04-20 16:41 | 60.37476 | 25.08086 | 4862 ft | 246 kts | 45° |
| 2026-04-20 16:41 | 60.38636 | 25.10579 | 4993 ft | 247 kts | 50° |
| 2026-04-20 16:41 | 60.39327 | 25.13741 | 5042 ft | 252 kts | 81° |
| 2026-04-20 16:42 | 60.39007 | 25.17260 | 5437 ft | 263 kts | 110° |
| 2026-04-20 16:42 | 60.38184 | 25.20569 | 6483 ft | 263 kts | 114° |
| 2026-04-20 16:42 | 60.37348 | 25.23857 | 7524 ft | 264 kts | 112° |
| 2026-04-20 16:42 | 60.36528 | 25.27194 | 8500 ft | 266 kts | 112° |
| 2026-04-20 16:43 | 60.35715 | 25.30584 | 9508 ft | 269 kts | 111° |
| 2026-04-20 16:43 | 60.34789 | 25.33909 | 10475 ft | 277 kts | 122° |
| 2026-04-20 16:43 | 60.33347 | 25.36552 | 11356 ft | 288 kts | 145° |
| 2026-04-20 16:43 | 60.31404 | 25.37788 | 12277 ft | 300 kts | 169° |
| 2026-04-20 16:44 | 60.29293 | 25.37912 | 13163 ft | 307 kts | 176° |
| 2026-04-20 16:44 | 60.27106 | 25.37626 | 13719 ft | 326 kts | 184° |
| 2026-04-20 16:44 | 60.24823 | 25.36462 | 14113 ft | 349 kts | 198° |
| 2026-04-20 16:44 | 60.22633 | 25.34141 | 14686 ft | 362 kts | 212° |
| 2026-04-20 16:45 | 60.20725 | 25.30759 | 15392 ft | 369 kts | 226° |
| 2026-04-20 16:45 | 60.19075 | 25.26750 | 16105 ft | 375 kts | 231° |
| 2026-04-20 16:45 | 60.17461 | 25.22596 | 16815 ft | 380 kts | 231° |
| 2026-04-20 16:45 | 60.15821 | 25.18399 | 17530 ft | 385 kts | 231° |
| 2026-04-20 16:46 | 60.14150 | 25.14171 | 18248 ft | 389 kts | 230° |
| 2026-04-20 16:46 | 60.12449 | 25.09899 | 18915 ft | 393 kts | 230° |
| 2026-04-20 16:46 | 60.10727 | 25.05597 | 19530 ft | 397 kts | 230° |
| 2026-04-20 16:46 | 60.09009 | 25.01321 | 20139 ft | 401 kts | 230° |
| 2026-04-20 16:47 | 60.07227 | 24.96898 | 20771 ft | 405 kts | 230° |
| 2026-04-20 16:47 | 60.05470 | 24.92548 | 21399 ft | 408 kts | 229° |
| 2026-04-20 16:47 | 60.03674 | 24.88109 | 21988 ft | 412 kts | 229° |
| 2026-04-20 16:47 | 60.01861 | 24.83640 | 22597 ft | 416 kts | 229° |
| 2026-04-20 16:48 | 60.00029 | 24.79131 | 23190 ft | 419 kts | 229° |
| 2026-04-20 16:48 | 59.98181 | 24.74591 | 23837 ft | 423 kts | 229° |